Weather at Chicago Midway International Airport

Public forecast

Using degrees Fahrenheit for public forecast. Weather courtesy of forecast.io.

Current aviation weather report (METAR) for Chicago Midway International Airport

Retrieved 2020/12/03 19:53 UTC (32 minutes ago):

KMDW 031953Z 26016G25KT 10SM BKN250 08/M04 A3006 RMK AO2 PK WND 26026/1913 SLP188 T00831044

Aviation forecast (TAF) for Chicago Midway International Airport

Retrieved 2020/12/03 18:45 UTC (2 hours ago):

TAF KMDW 031743Z 0318/0424 25014G22KT P6SM SCT250 FM032300 24011KT P6SM SCT100 FM041600 29009KT P6SM FEW250 FM042000 01009KT P6SM SCT025